Time;durP1;ratioP1;P1;durP2;ratioP2;P2;SDS_P1;SDS_P2;PMS_P1;PMS_P2;Temp;Humidity;BMP_temperature;BMP_pressure;BME280_temperature;BME280_humidity;BME280_pressure;Samples;Min_cycle;Max_cycle;Signal;HPM_P1;HPM_P2
2024/02/12 00:01:03;;;;;;;36.50;7.90;;;;;;;-147.86;100.00;100857.92;104919;1266;59988;-59
2024/02/12 00:03:31;;;;;;;26.70;7.20;;;;;;;-147.86;100.00;101090.33;104933;1270;71111;-58
2024/02/12 00:05:59;;;;;;;33.00;6.90;;;;;;;-147.86;100.00;101045.83;104923;1265;63245;-60
2024/02/12 00:08:27;;;;;;;32.90;7.70;;;;;;;-147.86;100.00;101003.73;104859;1266;71444;-58
2024/02/12 00:10:54;;;;;;;37.40;7.20;;;;;;;-147.86;100.00;100954.06;104960;1267;246195;-59
2024/02/12 00:13:23;;;;;;;31.20;7.70;;;;;;;-147.86;100.00;101173.76;105178;1265;59307;-58
2024/02/12 00:15:51;;;;;;;29.70;7.10;;;;;;;-147.86;100.00;101125.69;105120;1264;71268;-58
2024/02/12 00:18:20;;;;;;;24.20;7.00;;;;;;;-147.86;100.00;101130.85;105149;1263;63244;-60
2024/02/12 00:20:48;;;;;;;22.10;7.20;;;;;;;-147.86;100.00;101039.08;105172;1263;70088;-59
2024/02/12 00:23:16;;;;;;;32.90;7.40;;;;;;;-147.86;100.00;100915.53;105141;1263;60690;-58
2024/02/12 00:25:45;;;;;;;33.20;7.30;;;;;;;-147.86;100.00;100937.78;105171;1267;61101;-61
2024/02/12 00:28:14;;;;;;;25.80;6.90;;;;;;;-147.86;100.00;100902.81;105147;1263;71973;-61
2024/02/12 00:30:42;;;;;;;21.80;6.70;;;;;;;-147.86;100.00;101318.40;105162;1263;63257;-60
2024/02/12 00:33:51;;;;;;;26.70;7.30;;;;;;;-147.86;100.00;101173.33;102711;1302;601019;-59
2024/02/12 00:36:20;;;;;;;33.60;7.80;;;;;;;-147.86;100.00;100672.41;105442;1263;60424;-60
2024/02/12 00:38:48;;;;;;;37.40;8.90;;;;;;;-147.86;100.00;100476.56;105386;1263;59577;-59
2024/02/12 00:41:20;;;;;;;32.30;7.80;;;;;;;-147.86;100.00;100419.77;105451;1263;72238;-57
2024/02/12 00:43:53;;;;;;;36.80;8.50;;;;;;;-147.86;100.00;100268.02;105408;1263;63216;-56
2024/02/12 00:46:22;;;;;;;36.70;8.20;;;;;;;-147.86;100.00;100038.45;105153;1263;254563;-54
2024/02/12 00:48:49;;;;;;;31.40;7.90;;;;;;;-147.86;100.00;100112.32;105446;1257;60483;-59
2024/02/12 00:51:18;;;;;;;29.80;7.10;;;;;;;-147.86;100.00;99910.95;105561;1261;59356;-60
2024/02/12 00:53:46;;;;;;;39.50;7.90;;;;;;;-147.86;100.00;99978.87;105578;1260;71222;-60
2024/02/12 00:56:17;;;;;;;40.70;7.80;;;;;;;-147.86;100.00;99991.98;105604;1261;63574;-61
2024/02/12 00:58:45;;;;;;;33.30;8.40;;;;;;;-147.86;100.00;99860.91;105509;1257;71686;-60
2024/02/12 01:01:13;;;;;;;27.70;7.60;;;;;;;-147.86;100.00;99704.04;105528;1260;60541;-59
2024/02/12 01:03:41;;;;;;;31.70;8.40;;;;;;;-147.86;100.00;99657.57;105619;1260;59670;-58
2024/02/12 01:06:10;;;;;;;37.70;7.30;;;;;;;-147.86;100.00;99752.09;105578;1257;71817;-60
2024/02/12 01:08:39;;;;;;;31.30;6.90;;;;;;;-147.86;100.00;99674.25;105578;1258;63153;-59
2024/02/12 01:11:09;;;;;;;34.30;7.80;;;;;;;-147.86;100.00;99588.45;105462;1262;71468;-60
2024/02/12 01:13:37;;;;;;;36.50;7.50;;;;;;;-147.86;100.00;99597.60;105636;1257;61198;-58
2024/02/12 01:16:06;;;;;;;34.30;8.20;;;;;;;-147.86;100.00;99652.00;105588;1261;59954;-59
2024/02/12 01:18:34;;;;;;;30.30;8.20;;;;;;;-147.86;100.00;99746.92;105595;1260;73885;-57
2024/02/12 01:21:03;;;;;;;31.10;7.10;;;;;;;-147.86;100.00;99550.33;105529;1263;63149;-59
2024/02/12 01:23:32;;;;;;;34.20;7.70;;;;;;;-147.86;100.00;99446.70;105613;1260;72643;-57
2024/02/12 01:26:01;;;;;;;27.80;8.50;;;;;;;-147.86;100.00;99590.84;105605;1257;60565;-59
2024/02/12 01:28:31;;;;;;;30.50;7.90;;;;;;;-147.86;100.00;99545.56;105641;1257;59949;-59
2024/02/12 01:30:58;;;;;;;29.40;8.00;;;;;;;-147.86;100.00;99503.08;105561;1257;71790;-59
2024/02/12 01:33:29;;;;;;;38.80;7.40;;;;;;;-147.86;100.00;99460.98;105540;1257;62939;-58
2024/02/12 01:35:57;;;;;;;32.60;7.80;;;;;;;-147.86;100.00;99386.72;105576;1256;71441;-58
2024/02/12 01:38:24;;;;;;;31.10;8.30;;;;;;;-147.86;100.00;99376.00;105575;1260;60403;-59
2024/02/12 01:40:52;;;;;;;37.50;7.50;;;;;;;-147.86;100.00;99245.34;105534;1260;59647;-60
2024/02/12 01:43:30;;;;;;;29.50;7.20;;;;;;;-147.86;100.00;99081.34;105510;1261;73077;-60
2024/02/12 01:45:59;;;;;;;39.20;7.70;;;;;;;-147.86;100.00;98856.99;105594;1260;63209;-58
2024/02/12 01:48:29;;;;;;;26.80;7.90;;;;;;;-147.86;100.00;98877.64;105526;1257;70828;-59
2024/02/12 01:51:09;;;;;;;32.10;7.40;;;;;;;-147.86;100.00;98806.17;105597;1261;60425;-59
2024/02/12 01:53:38;;;;;;;38.40;7.30;;;;;;;-147.86;100.00;98403.57;105518;1258;59663;-59
2024/02/12 01:56:07;;;;;;;33.40;7.70;;;;;;;-147.86;100.00;98506.79;105563;1260;72997;-59
2024/02/12 01:58:37;;;;;;;25.10;7.00;;;;;;;-147.86;100.00;98493.69;105526;1262;63424;-59
2024/02/12 02:01:05;;;;;;;30.70;6.60;;;;;;;-147.86;100.00;98597.33;105588;1256;72425;-59
2024/02/12 02:03:33;;;;;;;30.60;7.60;;;;;;;-147.86;100.00;98435.73;105549;1261;61711;-57
2024/02/12 02:06:01;;;;;;;27.90;6.90;;;;;;;-147.86;100.00;98463.91;105530;1257;59545;-58
2024/02/12 02:08:42;;;;;;;28.10;6.90;;;;;;;-147.86;100.00;98439.69;105558;1257;73720;-56
2024/02/12 02:11:10;;;;;;;27.30;7.10;;;;;;;-147.86;100.00;98295.58;105589;1260;63160;-57
2024/02/12 02:13:42;;;;;;;30.10;7.20;;;;;;;-147.86;100.00;98377.36;105587;1261;71458;-60
2024/02/12 02:16:11;;;;;;;29.10;7.40;;;;;;;-147.86;100.00;98332.50;105540;1256;61266;-59
2024/02/12 02:18:39;;;;;;;28.40;7.30;;;;;;;-147.86;100.00;98131.61;105601;1260;59669;-61
2024/02/12 02:21:12;;;;;;;34.40;7.60;;;;;;;-147.86;100.00;98311.06;105230;1256;71766;-56
2024/02/12 02:23:40;;;;;;;32.20;7.50;;;;;;;-147.86;100.00;98149.87;105537;1258;63104;-58
2024/02/12 02:26:09;;;;;;;38.20;9.90;;;;;;;-147.86;100.00;98045.07;105538;1260;71407;-57
2024/02/12 02:28:37;;;;;;;30.40;7.60;;;;;;;-147.86;100.00;98142.73;105542;1260;60420;-59
2024/02/12 02:31:05;;;;;;;31.10;7.50;;;;;;;-147.86;100.00;98132.80;105575;1257;59957;-59
2024/02/12 02:33:35;;;;;;;28.90;6.70;;;;;;;-147.86;100.00;98326.15;105550;1257;70785;-57
2024/02/12 02:36:04;;;;;;;32.40;6.90;;;;;;;-147.86;100.00;98269.38;105625;1257;63136;-58
2024/02/12 02:38:31;;;;;;;35.20;7.60;;;;;;;-147.86;100.00;98236.42;105559;1257;71896;-59
2024/02/12 02:41:00;;;;;;;25.30;7.10;;;;;;;-147.86;100.00;98155.03;105503;1260;60404;-59
2024/02/12 02:43:28;;;;;;;31.10;7.50;;;;;;;-147.86;100.00;98298.36;105587;1258;60102;-58
2024/02/12 02:45:56;;;;;;;25.90;7.30;;;;;;;-147.86;100.00;98409.92;105620;1260;72294;-59
2024/02/12 02:48:24;;;;;;;23.40;6.70;;;;;;;-147.86;100.00;98519.90;105562;1257;63134;-58
2024/02/12 02:50:53;;;;;;;33.40;6.90;;;;;;;-147.86;100.00;98324.96;105602;1260;70447;-60
2024/02/12 02:53:21;;;;;;;29.70;6.50;;;;;;;-147.86;100.00;98322.17;105553;1257;61667;-60
2024/02/12 02:55:50;;;;;;;38.10;7.50;;;;;;;-147.86;100.00;98286.85;105566;1260;59654;-59
2024/02/12 02:58:20;;;;;;;31.60;6.60;;;;;;;-147.86;100.00;98131.61;105592;1258;71820;-58
2024/02/12 03:00:48;;;;;;;31.70;6.90;;;;;;;-147.86;100.00;98180.84;105589;1257;63894;-59
2024/02/12 03:03:16;;;;;;;30.00;6.80;;;;;;;-147.86;100.00;98118.12;105573;1256;70673;-60
2024/02/12 03:05:44;;;;;;;32.30;7.10;;;;;;;-147.86;100.00;98158.61;105587;1260;61573;-60
2024/02/12 03:08:11;;;;;;;24.30;6.30;;;;;;;-147.86;100.00;98047.85;105625;1256;59680;-58
2024/02/12 03:10:39;;;;;;;38.70;7.10;;;;;;;-147.86;100.00;98210.61;105575;1257;71909;-58
2024/02/12 03:13:07;;;;;;;31.10;7.30;;;;;;;-147.86;100.00;98209.82;105563;1260;63246;-59
2024/02/12 03:15:35;;;;;;;34.10;7.20;;;;;;;-147.86;100.00;98098.66;105596;1256;71087;-59
2024/02/12 03:18:04;;;;;;;34.20;7.00;;;;;;;-147.86;100.00;97928.36;105652;1258;61651;-60
2024/02/12 03:20:33;;;;;;;30.50;7.20;;;;;;;-147.86;100.00;97826.33;105652;1257;59561;-55
2024/02/12 03:23:01;;;;;;;28.80;6.60;;;;;;;-147.86;100.00;97854.91;109229;1256;71849;-57
2024/02/12 03:25:29;;;;;;;24.30;6.30;;;;;;;-147.86;100.00;97873.98;109208;1255;64418;-57
2024/02/12 03:27:57;;;;;;;26.10;6.90;;;;;;;-147.86;100.00;97844.98;109197;1255;71364;-57
2024/02/12 03:30:25;;;;;;;28.70;6.00;;;;;;;-147.86;100.00;97729.48;109228;1256;60828;-58
2024/02/12 03:32:52;;;;;;;22.40;5.80;;;;;;;-147.86;100.00;97568.71;109232;1256;58758;-58
2024/02/12 03:35:21;;;;;;;25.70;6.30;;;;;;;-147.86;100.00;97455.98;109209;1256;73479;-58
2024/02/12 03:37:49;;;;;;;26.60;6.00;;;;;;;-147.86;100.00;97414.70;109258;1255;63095;-58
2024/02/12 03:40:17;;;;;;;24.70;5.90;;;;;;;-147.86;100.00;97392.07;109202;1256;72641;-57
2024/02/12 03:42:49;;;;;;;25.00;7.00;;;;;;;-147.86;100.00;97267.44;109156;1256;61746;-59
2024/02/12 03:45:19;;;;;;;34.20;6.10;;;;;;;-147.86;100.00;97107.89;109224;1256;60119;-58
2024/02/12 03:47:47;;;;;;;30.60;5.50;;;;;;;-147.86;100.00;97122.17;109210;1255;72998;-59
2024/02/12 04:01:41;;;;;;;28.30;6.30;;;;;;;-147.86;100.00;96789.98;104825;1268;71044;-58
2024/02/12 04:04:10;;;;;;;30.50;6.80;;;;;;;-147.86;100.00;96895.95;104867;1267;64303;-59
2024/02/12 04:06:38;;;;;;;26.40;6.00;;;;;;;-147.86;100.00;96908.64;104680;1264;345863;-58
2024/02/12 04:09:08;;;;;;;31.20;6.60;;;;;;;-147.86;100.00;96813.00;105136;1264;61726;-57
2024/02/12 04:11:40;;;;;;;24.90;7.10;;;;;;;-147.86;100.00;96781.64;105102;1268;59387;-56
2024/02/12 04:14:09;;;;;;;26.00;6.80;;;;;;;-147.86;100.00;96694.73;105161;1263;70972;-58
2024/02/12 04:16:37;;;;;;;32.90;6.30;;;;;;;-147.86;100.00;96742.76;105108;1268;64388;-57
2024/02/12 04:19:10;;;;;;;40.40;6.90;;;;;;;-147.86;100.00;96687.98;105088;1263;72648;-61
2024/02/12 04:21:38;;;;;;;27.50;6.00;;;;;;;-147.86;100.00;96470.11;105082;1263;61678;-59
2024/02/12 04:24:06;;;;;;;29.00;7.00;;;;;;;-147.86;100.00;96293.92;104866;1265;60041;-58
2024/02/12 04:26:37;;;;;;;36.20;7.00;;;;;;;-147.86;100.00;96310.98;105133;1263;73225;-57
2024/02/12 04:29:08;;;;;;;25.00;6.60;;;;;;;-147.86;100.00;96330.44;105077;1268;63166;-59
2024/02/12 04:31:36;;;;;;;29.50;7.10;;;;;;;-147.86;100.00;96067.75;105178;1265;71437;-58
2024/02/12 04:34:07;;;;;;;35.20;7.30;;;;;;;-147.86;100.00;95988.79;105085;1264;60841;-56
2024/02/12 04:36:42;;;;;;;29.30;6.70;;;;;;;-147.86;100.00;95968.55;105200;1265;59808;-57
2024/02/12 04:39:16;;;;;;;26.10;7.00;;;;;;;-147.86;100.00;95979.27;105098;1264;71874;-60
2024/02/12 04:41:45;;;;;;;31.30;7.00;;;;;;;-147.86;100.00;95781.27;105117;1264;63245;-59
2024/02/12 04:44:13;;;;;;;28.40;6.60;;;;;;;-147.86;100.00;95708.66;105132;1264;71436;-58
2024/02/12 04:46:41;;;;;;;29.70;6.90;;;;;;;-147.86;100.00;95667.41;105126;1263;60451;-55
2024/02/12 04:49:09;;;;;;;24.90;6.80;;;;;;;-147.86;100.00;95597.17;105127;1264;60394;-56
2024/02/12 04:51:37;;;;;;;34.00;7.00;;;;;;;-147.86;100.00;95429.35;105082;1268;71858;-59
2024/02/12 04:54:05;;;;;;;33.50;6.70;;;;;;;-147.86;100.00;95399.20;105044;1266;64481;-57
2024/02/12 04:56:33;;;;;;;36.00;7.40;;;;;;;-147.86;100.00;95346.84;105031;1267;70431;-58
2024/02/12 04:59:01;;;;;;;32.80;7.90;;;;;;;-147.86;100.00;95350.02;105107;1263;61059;-58
2024/02/12 05:01:29;;;;;;;33.50;7.90;;;;;;;-147.86;100.00;95459.11;105169;1269;59647;-55
2024/02/12 05:03:58;;;;;;;28.60;7.00;;;;;;;-147.86;100.00;95424.98;105050;1266;73055;-57
2024/02/12 05:06:27;;;;;;;26.60;6.80;;;;;;;-147.86;100.00;95419.44;105051;1266;63103;-58
2024/02/12 05:08:55;;;;;;;32.20;7.40;;;;;;;-147.86;100.00;98606.66;105039;1266;72770;-59
2024/02/12 05:11:26;;;;;;;27.30;7.30;;;;;;;-147.86;100.00;101770.70;105101;1264;60507;-58
2024/02/12 05:13:54;;;;;;;30.10;7.10;;;;;;;-147.86;100.00;98933.27;105115;1264;59973;-59
2024/02/12 05:16:45;;;;;;;29.50;7.50;;;;;;;-147.86;100.00;98149.88;105075;1264;71758;-57
2024/02/12 05:24:47;;;;;;;29.00;7.40;;;;;;;-147.86;100.00;97508.79;105024;1265;59701;-59
2024/02/12 05:27:15;;;;;;;29.60;7.00;;;;;;;-147.86;100.00;97798.17;105043;1268;59649;-60
2024/02/12 05:29:43;;;;;;;41.40;8.50;;;;;;;-147.86;100.00;98057.00;105089;1266;72993;-60
2024/02/12 05:32:11;;;;;;;32.60;7.70;;;;;;;-147.86;100.00;97399.62;105129;1268;63319;-57
2024/02/12 05:34:41;;;;;;;34.60;6.90;;;;;;;-147.86;100.00;97178.52;105081;1264;71441;-59
2024/02/12 05:37:09;;;;;;;45.10;14.00;;;;;;;-147.86;100.00;96943.97;105078;1264;61655;-61
2024/02/12 05:39:37;;;;;;;85.80;37.20;;;;;;;-147.86;100.00;96824.50;105091;1268;59667;-61
2024/02/12 05:42:05;;;;;;;66.10;31.70;;;;;;;-147.86;100.00;96569.34;105042;1264;71809;-59
2024/02/12 05:44:37;;;;;;;27.80;9.50;;;;;;;-147.86;100.00;96493.52;105076;1264;63934;-59
2024/02/12 05:47:07;;;;;;;31.90;12.40;;;;;;;-147.86;100.00;96487.19;105036;1264;71384;-61
2024/02/12 05:49:35;;;;;;;35.20;11.20;;;;;;;-147.86;100.00;96410.20;105057;1267;59776;-59
2024/02/12 05:52:03;;;;;;;34.90;10.00;;;;;;;-147.86;100.00;96184.41;105037;1268;59786;-58
2024/02/12 05:54:31;;;;;;;31.70;8.30;;;;;;;-147.86;100.00;96312.98;105119;1265;72993;-58
2024/02/12 05:57:02;;;;;;;50.90;16.60;;;;;;;-147.86;100.00;96304.25;105065;1264;63204;-60
2024/02/12 05:59:32;;;;;;;33.10;11.90;;;;;;;-147.86;100.00;96258.21;105092;1268;71375;-59
2024/02/12 06:02:04;;;;;;;28.50;8.40;;;;;;;-147.86;100.00;96127.66;105085;1268;61038;-57
2024/02/12 06:04:32;;;;;;;61.50;23.60;;;;;;;-147.86;100.00;96055.85;105050;1268;59727;-59
2024/02/12 06:07:00;;;;;;;40.50;12.10;;;;;;;-147.86;100.00;96074.50;105028;1264;71812;-59
2024/02/12 06:09:28;;;;;;;39.20;9.00;;;;;;;-147.86;100.00;96000.69;105109;1264;63224;-60
2024/02/12 06:11:56;;;;;;;68.70;29.80;;;;;;;-147.86;100.00;95971.33;105063;1266;71449;-58
2024/02/12 06:14:24;;;;;;;141.60;61.50;;;;;;;-147.86;100.00;95937.61;104756;1266;61917;-59
2024/02/12 06:16:52;;;;;;;82.10;30.70;;;;;;;-147.86;100.00;96040.37;104897;1268;59602;-58
2024/02/12 06:19:19;;;;;;;890.40;371.60;;;;;;;-147.86;100.00;95781.27;105035;1264;71750;-59
2024/02/12 06:21:47;;;;;;;273.30;93.60;;;;;;;-147.86;100.00;95775.73;105020;1266;64445;-58
2024/02/12 06:24:15;;;;;;;174.30;70.50;;;;;;;-147.86;100.00;95891.17;105068;1264;72621;-55
2024/02/12 06:56:08;;;;;;;23.20;5.20;;;;;;;-147.86;100.00;98502.71;102634;1292;600432;-60
2024/02/12 06:58:36;;;;;;;23.90;5.00;;;;;;;-147.86;100.00;95180.21;104790;1271;60419;-58
2024/02/12 07:01:04;;;;;;;28.30;6.30;;;;;;;-147.86;100.00;95131.42;104818;1267;60012;-57
2024/02/12 07:03:33;;;;;;;22.80;5.10;;;;;;;-147.86;100.00;94981.87;104838;1272;70993;-58
2024/02/12 07:06:00;;;;;;;32.10;5.40;;;;;;;-147.86;100.00;94676.43;104833;1271;64564;-59
2024/02/12 07:08:28;;;;;;;21.40;5.70;;;;;;;-147.86;100.00;94762.11;104776;1271;72467;-58
2024/02/12 07:10:56;;;;;;;24.50;5.50;;;;;;;-147.86;100.00;96114.34;104879;1269;237262;-61
2024/02/12 07:13:24;;;;;;;24.20;5.60;;;;;;;-147.86;100.00;110724.86;104905;1269;59332;-58
2024/02/12 07:15:51;;;;;;;29.90;5.60;;;;;;;-147.86;100.00;104730.09;104963;1269;70749;-57
2024/02/12 07:18:19;;;;;;;22.60;5.50;;;;;;;-147.86;100.00;101370.84;105099;1264;64079;-57
2024/02/12 07:20:47;;;;;;;22.70;5.30;;;;;;;-147.86;100.00;99637.79;105083;1269;71663;-58
2024/02/12 07:23:15;;;;;;;20.40;4.70;;;;;;;-147.86;100.00;99057.13;105045;1268;61748;-55
2024/02/12 07:25:44;;;;;;;20.80;5.30;;;;;;;-147.86;100.00;98015.69;105118;1269;59642;-61
2024/02/12 07:28:11;;;;;;;23.10;5.50;;;;;;;-147.86;100.00;97246.80;105098;1268;73093;-59
2024/02/12 07:30:44;;;;;;;21.20;5.40;;;;;;;-147.86;100.00;96944.75;105065;1268;64474;-58
2024/02/12 07:33:11;;;;;;;28.30;5.70;;;;;;;-147.86;100.00;96691.56;104941;1266;71417;-58
2024/02/12 07:35:39;;;;;;;21.30;4.80;;;;;;;-147.86;100.00;96293.92;104874;1271;60755;-59
2024/02/12 07:38:08;;;;;;;21.80;4.70;;;;;;;-147.86;100.00;95887.21;105113;1266;59570;-61
2024/02/12 07:40:37;;;;;;;25.00;6.10;;;;;;;-147.86;100.00;95733.27;105080;1268;72802;-61
2024/02/12 07:43:05;;;;;;;23.00;5.20;;;;;;;-147.86;100.00;95500.37;105104;1268;64568;-58
2024/02/12 07:45:34;;;;;;;33.50;5.90;;;;;;;-147.86;100.00;95117.53;105769;1259;71437;-60
2024/02/12 07:48:02;;;;;;;23.70;5.20;;;;;;;-147.86;100.00;95018.75;105822;1256;60681;-55
2024/02/12 07:50:31;;;;;;;24.30;5.30;;;;;;;-147.86;100.00;94251.23;105856;1254;62341;-57
2024/02/12 07:53:00;;;;;;;19.30;5.50;;;;;;;-147.86;100.00;93835.60;105683;1258;75382;-60
2024/02/12 07:55:27;;;;;;;27.20;5.80;;;;;;;-147.86;100.00;93820.13;105651;1258;64141;-58
2024/02/12 07:57:55;;;;;;;25.50;5.10;;;;;;;-147.86;100.00;93675.38;105687;1260;72509;-60
2024/02/12 08:00:23;;;;;;;22.80;6.20;;;;;;;-147.86;100.00;93468.38;105673;1258;60634;-55
2024/02/12 08:02:53;;;;;;;28.80;5.50;;;;;;;-147.86;100.00;93144.42;105722;1253;60099;-58
2024/02/12 08:05:21;;;;;;;27.40;6.00;;;;;;;-147.86;100.00;92960.84;105663;1258;71420;-59
2024/02/12 08:07:49;;;;;;;26.70;5.80;;;;;;;-147.86;100.00;92688.06;105696;1261;63268;-59
2024/02/12 08:10:30;;;;;;;21.80;5.00;;;;;;;-147.86;100.00;92507.29;105642;1253;72220;-58
2024/02/12 08:12:57;;;;;;;26.70;5.10;;;;;;;-147.86;100.00;92423.63;105702;1254;61683;-61
2024/02/12 08:15:26;;;;;;;19.80;4.70;;;;;;;-147.86;100.00;92085.88;105618;1258;59593;-60
2024/02/12 08:17:53;;;;;;;22.00;5.00;;;;;;;-147.86;100.00;91774.72;105682;1260;73628;-58
2024/02/12 08:20:22;;;;;;;26.30;5.40;;;;;;;-147.86;100.00;91688.70;105729;1255;63306;-59
2024/02/12 08:22:50;;;;;;;21.90;5.10;;;;;;;-147.86;100.00;91402.94;105673;1259;71458;-58
2024/02/12 08:25:18;;;;;;;17.20;4.60;;;;;;;-147.86;100.00;91139.77;105612;1255;60283;-60
2024/02/12 08:27:46;;;;;;;18.60;4.70;;;;;;;-147.86;100.00;90837.00;105671;1260;59619;-58
2024/02/12 08:30:14;;;;;;;23.50;5.00;;;;;;;-147.86;100.00;90513.64;105674;1263;73027;-58
2024/02/12 08:32:42;;;;;;;21.00;5.00;;;;;;;-147.86;100.00;90291.35;105672;1268;64602;-57
2024/02/12 08:35:10;;;;;;;16.40;4.90;;;;;;;-147.86;100.00;90065.52;105643;1259;72720;-58
2024/02/12 08:37:38;;;;;;;23.40;5.50;;;;;;;-147.86;100.00;89684.78;105634;1254;61163;-59
2024/02/12 08:40:12;;;;;;;21.00;5.10;;;;;;;-147.86;100.00;89516.81;105702;1253;59721;-59
2024/02/12 08:42:44;;;;;;;21.70;5.30;;;;;;;-147.86;100.00;89033.52;105675;1255;75167;-55
2024/02/12 08:45:12;;;;;;;19.60;4.80;;;;;;;-147.86;100.00;88827.16;105701;1254;65455;-56
2024/02/12 08:47:41;;;;;;;19.60;5.00;;;;;;;-147.86;100.00;88579.61;105656;1254;71430;-57
2024/02/12 08:50:10;;;;;;;20.00;5.20;;;;;;;-147.86;100.00;88394.66;105719;1258;60462;-58
2024/02/12 08:52:38;;;;;;;28.30;5.40;;;;;;;-147.86;100.00;88454.08;105702;1260;59566;-60
2024/02/12 08:55:10;;;;;;;20.40;4.70;;;;;;;-147.86;100.00;88176.45;105645;1254;72856;-59
2024/02/12 08:57:41;;;;;;;21.50;5.50;;;;;;;-147.86;100.00;87809.75;105710;1260;64412;-57
2024/02/12 09:00:10;;;;;;;15.50;5.10;;;;;;;-147.86;100.00;87458.52;105670;1259;71898;-59
2024/02/12 09:02:38;;;;;;;17.80;5.10;;;;;;;-147.86;100.00;87359.93;105664;1258;61241;-60
2024/02/12 09:05:10;;;;;;;21.20;4.80;;;;;;;-147.86;100.00;87055.46;105706;1259;59632;-58
2024/02/12 09:07:42;;;;;;;17.70;4.70;;;;;;;-147.86;100.00;86726.88;105656;1254;71801;-59
2024/02/12 09:10:13;;;;;;;14.90;4.90;;;;;;;-147.86;100.00;86431.96;105677;1259;64661;-61
2024/02/12 09:12:44;;;;;;;14.40;4.40;;;;;;;-147.86;100.00;86138.64;105672;1258;72166;-57
2024/02/12 09:15:20;;;;;;;15.60;4.80;;;;;;;-147.86;100.00;85910.65;105661;1261;60389;-62
2024/02/12 09:17:49;;;;;;;17.50;4.40;;;;;;;-147.86;100.00;85432.95;105714;1258;59727;-58
2024/02/12 09:20:16;;;;;;;18.00;4.60;;;;;;;-147.86;100.00;85173.75;105676;1255;71743;-59
2024/02/12 09:55:13;;;;;;;19.90;4.80;;;;;;;-147.86;100.00;83049.74;103527;1284;600706;-60
2024/02/12 09:57:41;;;;;;;18.00;4.90;;;;;;;-147.86;100.00;74935.14;105035;1264;59435;-56
2024/02/12 10:00:10;;;;;;;18.10;4.60;;;;;;;-147.86;100.00;73736.17;105013;1264;59802;-58
2024/02/12 10:02:40;;;;;;;23.10;4.20;;;;;;;-147.86;100.00;72074.88;105087;1264;71741;-57
2024/02/12 10:05:17;;;;;;;15.50;4.70;;;;;;;-147.86;100.00;70148.52;105041;1268;63178;-59
2024/02/12 10:07:46;;;;;;;23.10;5.00;;;;;;;-147.86;100.00;67587.55;104921;1270;268469;-59
2024/02/12 10:10:15;;;;;;;28.20;6.10;;;;;;;-147.86;100.00;65080.98;105219;1264;60080;-60
2024/02/12 10:12:49;;;;;;;12.80;4.20;;;;;;;-147.86;100.00;62142.00;105231;1264;62299;-60
2024/02/12 10:15:18;;;;;;;15.70;4.70;;;;;;;-147.86;100.00;58512.87;105233;1262;71027;-59
2024/02/12 10:17:48;;;;;;;18.60;4.70;;;;;;;-147.86;100.00;54648.68;105205;1266;64946;-60
2024/02/12 10:20:16;;;;;;;19.60;5.40;;;;;;;-147.86;100.00;50768.98;105658;1254;74592;-61
2024/02/12 10:22:44;;;;;;;15.40;5.30;;;;;;;-147.86;100.00;47285.08;105662;1257;60364;-61
2024/02/12 10:25:12;;;;;;;21.40;5.00;;;;;;;-147.86;100.00;44076.82;105728;1254;59584;-59
2024/02/12 10:27:40;;;;;;;22.00;4.60;;;;;;;-147.86;100.00;41310.68;105684;1254;73120;-57
2024/02/12 10:30:10;;;;;;;15.30;4.80;;;;;;;-147.86;100.00;39120.29;105648;1255;66763;-57
2024/02/12 10:32:38;;;;;;;15.40;5.00;;;;;;;-147.86;100.00;36874.44;105726;1260;73759;-60
2024/02/12 10:35:07;;;;;;;16.50;4.80;;;;;;;-147.86;100.00;34756.47;105622;1260;60372;-57
2024/02/12 10:37:35;;;;;;;22.80;5.60;;;;;;;-147.86;100.00;32708.76;105641;1254;60775;-55
2024/02/12 10:40:12;;;;;;;18.90;5.20;;;;;;;-147.86;100.00;30779.63;105641;1259;70986;-55
2024/02/12 10:42:49;;;;;;;16.30;4.30;;;;;;;-147.86;100.00;28570.16;105694;1260;66543;-59
2024/02/12 10:45:18;;;;;;;17.80;4.60;;;;;;;-147.86;100.00;26346.72;105662;1254;74949;-60
2024/02/12 10:47:47;;;;;;;19.90;5.20;;;;;;;-147.86;100.00;24565.70;105656;1260;59786;-60
2024/02/12 10:50:17;;;;;;;17.80;5.10;;;;;;;-147.86;100.00;23337.49;105699;1260;61081;-60
2024/02/12 10:52:48;;;;;;;19.50;4.70;;;;;;;-147.86;100.00;23101.79;105572;1257;72848;-61
2024/02/12 10:55:16;;;;;;;17.90;4.80;;;;;;;-147.86;100.00;22823.64;105605;1257;66499;-55
2024/02/12 10:57:44;;;;;;;19.70;5.10;;;;;;;-147.86;100.00;22729.76;105610;1256;73833;-61
2024/02/12 11:00:27;;;;;;;13.00;4.40;;;;;;;-147.86;100.00;22506.55;105575;1257;61039;-59
2024/02/12 11:02:56;;;;;;;16.30;4.80;;;;;;;-147.86;100.00;21992.48;105573;1256;61743;-58
2024/02/12 11:05:23;;;;;;;20.00;4.70;;;;;;;-147.86;100.00;22497.60;105609;1257;71510;-59
2024/02/12 11:08:20;;;;;;;17.00;4.80;;;;;;;-147.86;100.00;22827.15;105631;1260;66571;-56
2024/02/12 11:10:49;;;;;;;19.80;4.20;;;;;;;-147.86;100.00;22500.78;105539;1262;74261;-57
2024/02/12 11:13:20;;;;;;;17.30;4.40;;;;;;;-147.86;100.00;22368.67;105641;1257;60128;-60
2024/02/12 11:15:52;;;;;;;15.70;5.00;;;;;;;-147.86;100.00;21279.39;105721;1254;59846;-59
2024/02/12 11:18:22;;;;;;;13.40;4.90;;;;;;;-147.86;100.00;19347.72;105798;1257;73249;-59
2024/02/12 11:20:54;;;;;;;15.50;4.80;;;;;;;-147.86;100.00;17886.94;105773;1257;64284;-55
2024/02/12 11:23:23;;;;;;;17.90;4.50;;;;;;;-147.86;100.00;16627.79;105704;1256;71214;-59
2024/02/12 11:25:55;;;;;;;13.90;4.50;;;;;;;-147.86;100.00;14823.97;105735;1254;62001;-60
2024/02/12 11:28:30;;;;;;;19.50;5.30;;;;;;;-147.86;100.00;14069.10;105903;1254;62189;-59
2024/02/12 11:30:58;;;;;;;12.60;4.40;;;;;;;-147.86;100.00;14064.84;105830;1257;72872;-58
2024/02/12 11:33:26;;;;;;;17.50;4.70;;;;;;;-147.86;100.00;15161.44;105917;1252;64758;-59
2024/02/12 11:36:22;;;;;;;20.60;4.00;;;;;;;-147.86;100.00;17353.24;105923;1254;74691;-59
2024/02/12 11:38:53;;;;;;;16.80;5.30;;;;;;;-147.86;100.00;18686.14;105745;1254;61737;-60
2024/02/12 11:41:21;;;;;;;13.50;4.20;;;;;;;-147.86;100.00;18248.78;105829;1253;59848;-59
2024/02/12 11:43:49;;;;;;;17.40;4.60;;;;;;;-147.86;100.00;17294.07;105923;1252;73270;-61
2024/02/12 11:46:18;;;;;;;16.70;4.30;;;;;;;-147.86;100.00;16162.66;105860;1256;65399;-59
2024/02/12 11:48:46;;;;;;;12.70;3.90;;;;;;;-147.86;100.00;15985.72;105826;1254;72490;-58
2024/02/12 11:51:21;;;;;;;13.90;4.30;;;;;;;-147.86;100.00;16280.49;105724;1258;62152;-58
2024/02/12 11:53:51;;;;;;;24.30;4.80;;;;;;;-147.86;100.00;15907.56;105871;1254;62248;-56
2024/02/12 11:56:23;;;;;;;15.00;4.40;;;;;;;-147.86;100.00;15118.27;105904;1252;73015;-58
2024/02/12 11:58:56;;;;;;;15.30;3.90;;;;;;;-147.86;100.00;14374.65;105741;1259;66704;-58
2024/02/12 12:01:28;;;;;;;17.40;4.40;;;;;;;-147.86;100.00;12939.83;105887;1254;72292;-56
2024/02/12 12:03:57;;;;;;;22.60;4.10;;;;;;;-147.86;100.00;10891.99;105925;1253;61388;-58
2024/02/12 12:06:33;;;;;;;17.30;3.90;;;;;;;-147.86;100.00;7061.65;105897;1256;59720;-57
2024/02/12 12:09:05;;;;;;;15.70;4.60;;;;;;;-147.86;100.00;5058.68;105753;1254;74100;-60
2024/02/12 12:11:34;;;;;;;18.20;5.10;;;;;;;-147.86;100.00;2206.92;105777;1257;66729;-57
2024/02/12 12:14:02;;;;;;;26.70;4.90;;;;;;;-147.86;100.00;510.50;105867;1254;74692;-59
2024/02/12 12:16:30;;;;;;;21.90;4.40;;;;;;;-147.86;100.00;-1906.73;105882;1256;61727;-61
2024/02/12 12:19:09;;;;;;;16.40;3.50;;;;;;;-147.86;100.00;-2672.71;105894;1254;60557;-57
2024/02/12 12:21:37;;;;;;;15.60;4.40;;;;;;;-147.86;100.00;-3006.26;105890;1254;75071;-58